Pagrindinis puslapis
METAR-TAF:

METAR-TAF

Oro uostai :

Tennant Creek, Australija

platuma: 19-38-04S, ilguma: 134-11-00E, Aukštis: 377 m

Dabartinis oras

Ataskaita buvo paskelbta 45 minutes, ne 04:00 UTC
Vėjas 6 kt iš Pietų/Pietryčių, svyruoja nuo Rytų ir Pietų
Temperatūra 40°C
Drėgmė 10%
Slėgis 1007 hPa
Matomumas 10 km arba daugiau

METAR: YTNK 020400Z AUTO 15006KT 100V170 9999 // NCD 40/03 Q1007

Laikas: 14:15 (04:45 UTC)

Prognozė

Ataskaita buvo paskelbta 2 valandos ir 59 minutes, ne 01:46 UTC
Prognozė galioja nuo 02 metu 02 UTC su 02 metu 14 UTC
Vėjas 12 kt iš Rytų/Pietryčių
Matomumas 10 km arba daugiau
nėra debesų žemiau 1500 m ir nėra kamuolinių lietaus debesų

TAF: YTNK 020146Z 0202/0214 12012KT CAVOK

Orai ataskaitas ir orų prognozės (METAR, TAF).

turimą stotys yra geltonos ir raudonos taškus žemėlapyje.

Perkelti pele per norėdami pamatyti stoties vardą.

Tada spustelėkite, norėdami matyti oro stebėjimo ir prognozės.

Norėdami pakeisti žemėlapį: spustelėkite ant žalios mygtukų su juodo kryžiaus žemyn,; žalią mygtuką su brūkšneliu, jei norite nutolinti; arba žalių rodyklių gretimoms žemėlapius.


METAR-TAF: